Time;durP1;ratioP1;P1;durP2;ratioP2;P2;SDS_P1;SDS_P2;PMS_P1;PMS_P2;Temp;Humidity;BMP_temperature;BMP_pressure;BME280_temperature;BME280_humidity;BME280_pressure;Samples;Min_cycle;Max_cycle;Signal;HPM_P1;HPM_P2
2022/06/25 00:01:50;;;;;;;3.95;2.90;;;19.40;99.90;;;;;;5134859;27;20196;-53
2022/06/25 00:06:59;;;;;;;3.92;2.42;;;19.40;99.90;;;;;;5135174;27;20715;-53
2022/06/25 00:09:25;;;;;;;7.13;3.05;;;19.40;99.90;;;;;;5116174;27;20298;-53
2022/06/25 00:14:37;;;;;;;7.88;3.20;;;19.40;99.90;;;;;;5134789;27;20171;-53
2022/06/25 00:17:03;;;;;;;8.13;3.90;;;19.30;99.90;;;;;;5134703;27;20156;-53
2022/06/25 00:19:28;;;;;;;11.75;3.78;;;19.20;99.90;;;;;;5134499;27;20207;-53
2022/06/25 00:21:54;;;;;;;8.73;3.35;;;19.30;99.90;;;;;;5134578;27;20160;-53
2022/06/25 00:24:19;;;;;;;3.97;3.42;;;19.10;99.90;;;;;;5134486;27;20700;-53
2022/06/25 00:26:45;;;;;;;3.85;2.53;;;19.10;99.90;;;;;;5134764;27;20187;-53
2022/06/25 00:29:11;;;;;;;4.55;3.30;;;19.10;99.90;;;;;;5134395;27;20164;-53
2022/06/25 00:31:37;;;;;;;4.00;2.20;;;19.10;99.90;;;;;;5134280;27;21070;-53
2022/06/25 00:34:03;;;;;;;4.00;3.38;;;19.20;99.90;;;;;;5134439;27;20164;-53
2022/06/25 00:36:29;;;;;;;5.20;2.75;;;19.20;99.90;;;;;;5134242;27;20167;-53
2022/06/25 00:38:55;;;;;;;8.70;3.35;;;19.10;99.90;;;;;;5134187;27;20199;-53
2022/06/25 00:41:20;;;;;;;8.32;3.03;;;19.10;99.90;;;;;;5134100;27;20164;-53
2022/06/25 00:43:46;;;;;;;8.65;3.30;;;19.10;99.90;;;;;;5133605;27;20174;-53
2022/06/25 00:46:11;;;;;;;6.47;3.78;;;19.10;99.90;;;;;;5134072;27;20164;-53
2022/06/25 00:48:37;;;;;;;6.95;3.97;;;19.10;99.90;;;;;;5134134;27;20171;-53
2022/06/25 00:51:15;;;;;;;7.93;4.03;;;19.10;99.90;;;;;;5133925;27;20163;-53
2022/06/25 00:53:43;;;;;;;10.43;3.78;;;19.20;99.90;;;;;;5133898;27;20199;-53
2022/06/25 00:56:10;;;;;;;12.80;4.13;;;19.10;99.90;;;;;;5133918;27;20164;-53
2022/06/25 00:58:40;;;;;;;14.75;4.55;;;19.10;99.90;;;;;;5133709;27;20203;-53
2022/06/25 01:01:08;;;;;;;9.18;3.92;;;19.10;99.90;;;;;;5133797;27;20303;-53
2022/06/25 01:03:34;;;;;;;9.45;4.28;;;19.00;99.90;;;;;;5133949;27;20164;-53
2022/06/25 01:06:00;;;;;;;6.93;3.80;;;19.00;99.90;;;;;;5133732;27;20172;-53
2022/06/25 01:08:26;;;;;;;5.40;3.50;;;19.00;99.90;;;;;;5133416;27;20172;-53
2022/06/25 01:10:52;;;;;;;9.50;3.90;;;19.10;99.90;;;;;;5133690;27;20166;-53
2022/06/25 01:13:22;;;;;;;7.50;3.83;;;19.10;99.90;;;;;;5133505;27;20603;-53
2022/06/25 01:15:48;;;;;;;7.53;3.50;;;19.10;99.90;;;;;;5133704;27;20178;-53
2022/06/25 01:18:15;;;;;;;6.85;2.97;;;19.00;99.90;;;;;;5133785;27;20246;-53
2022/06/25 01:20:42;;;;;;;5.70;2.95;;;19.10;99.90;;;;;;5133443;27;20242;-52
2022/06/25 01:23:08;;;;;;;7.05;3.05;;;19.10;99.90;;;;;;5133641;27;20163;-53
2022/06/25 01:25:35;;;;;;;10.48;3.00;;;19.10;99.90;;;;;;5133375;27;20160;-53
2022/06/25 01:28:02;;;;;;;3.72;2.22;;;19.00;99.90;;;;;;5133290;27;20161;-53
2022/06/25 01:30:28;;;;;;;5.90;2.45;;;19.00;99.90;;;;;;5133531;27;20168;-53
2022/06/25 01:32:54;;;;;;;5.47;2.50;;;19.10;99.90;;;;;;5133246;27;20527;-53
2022/06/25 01:35:19;;;;;;;2.95;2.65;;;19.00;99.90;;;;;;5133209;27;20156;-53
2022/06/25 01:37:45;;;;;;;6.05;2.42;;;19.00;99.90;;;;;;5133832;27;20202;-53
2022/06/25 01:40:11;;;;;;;6.82;2.45;;;19.00;99.90;;;;;;5133103;27;20545;-53
2022/06/25 01:45:21;;;;;;;3.22;2.53;;;18.80;99.90;;;;;;5133079;27;20194;-53
2022/06/25 01:47:47;;;;;;;2.70;2.30;;;18.80;99.90;;;;;;5133345;27;20160;-53
2022/06/25 01:50:13;;;;;;;5.53;2.50;;;18.20;99.90;;;;;;5133249;27;20536;-53
2022/06/25 01:52:40;;;;;;;6.03;2.70;;;18.80;99.90;;;;;;5133223;28;20194;-53
2022/06/25 01:55:07;;;;;;;3.22;2.60;;;18.80;99.90;;;;;;5133058;27;20179;-53
2022/06/25 01:57:32;;;;;;;6.97;2.75;;;18.80;99.90;;;;;;5132879;27;20160;-53
2022/06/25 01:59:58;;;;;;;5.70;2.60;;;18.70;99.90;;;;;;5133002;27;20211;-53
2022/06/25 02:02:24;;;;;;;4.50;2.58;;;18.80;99.90;;;;;;5133007;28;20161;-53
2022/06/25 02:04:50;;;;;;;3.10;2.17;;;18.70;99.90;;;;;;5133416;28;20198;-53
2022/06/25 02:07:16;;;;;;;4.53;2.58;;;18.70;99.90;;;;;;5133204;28;20160;-53
2022/06/25 02:09:41;;;;;;;5.90;2.67;;;18.70;99.90;;;;;;5132619;28;20294;-53
2022/06/25 02:12:08;;;;;;;7.95;2.47;;;18.80;99.90;;;;;;5132785;28;20168;-53
2022/06/25 02:14:33;;;;;;;5.82;2.50;;;18.70;99.90;;;;;;5114353;28;20168;-53
2022/06/25 02:17:00;;;;;;;7.18;2.28;;;18.70;99.90;;;;;;5132663;28;20170;-53
2022/06/25 02:19:25;;;;;;;2.42;2.20;;;18.70;99.90;;;;;;5132592;28;20679;-53
2022/06/25 02:21:51;;;;;;;11.32;2.97;;;18.50;99.90;;;;;;5132768;28;20160;-53
2022/06/25 02:24:17;;;;;;;7.30;2.88;;;18.50;99.90;;;;;;5133089;28;20692;-53
2022/06/25 02:26:42;;;;;;;7.90;2.55;;;21.60;99.90;;;;;;5132861;28;20174;-53
2022/06/25 02:29:08;;;;;;;7.07;2.92;;;18.50;99.90;;;;;;5132654;28;20233;-53
2022/06/25 02:31:34;;;;;;;3.33;2.28;;;18.50;99.90;;;;;;5132543;28;20182;-53
2022/06/25 02:33:59;;;;;;;4.25;2.22;;;18.50;99.90;;;;;;5132521;28;20168;-53
2022/06/25 02:36:25;;;;;;;5.53;2.40;;;18.60;99.90;;;;;;5132521;28;20164;-53
2022/06/25 02:38:50;;;;;;;5.50;2.42;;;18.60;99.90;;;;;;5132432;28;20221;-53
2022/06/25 02:41:16;;;;;;;3.83;2.28;;;18.50;99.90;;;;;;5132783;28;20172;-54
2022/06/25 02:43:42;;;;;;;8.63;2.67;;;18.60;99.90;;;;;;5132735;28;20161;-53
2022/06/25 02:46:07;;;;;;;3.22;2.70;;;18.70;99.90;;;;;;5132389;28;20175;-53
2022/06/25 02:48:33;;;;;;;6.38;2.72;;;18.60;99.90;;;;;;5132364;28;20179;-53
2022/06/25 02:50:59;;;;;;;5.15;2.53;;;18.60;99.90;;;;;;5132443;28;20587;-53
2022/06/25 02:53:24;;;;;;;3.33;2.92;;;18.60;99.90;;;;;;5132628;28;20168;-53
2022/06/25 03:01:19;;;;;;;4.07;2.50;;;18.40;99.90;;;;;;5132328;28;20198;-53
2022/06/25 03:03:45;;;;;;;4.35;2.60;;;18.40;99.90;;;;;;5132886;28;20531;-53
2022/06/25 03:06:11;;;;;;;6.95;2.33;;;18.40;99.90;;;;;;5133117;27;20624;-53
2022/06/25 03:08:36;;;;;;;3.90;2.42;;;18.40;99.90;;;;;;5135855;27;20221;-53
2022/06/25 03:11:02;;;;;;;3.45;2.50;;;18.30;99.90;;;;;;5135962;27;20593;-53
2022/06/25 03:13:29;;;;;;;6.60;2.88;;;18.40;99.90;;;;;;5136230;27;20163;-53
2022/06/25 03:15:55;;;;;;;3.28;2.25;;;18.30;99.90;;;;;;5136194;27;20164;-53
2022/06/25 03:18:20;;;;;;;5.47;3.08;;;18.30;99.90;;;;;;5135737;27;20699;-53
2022/06/25 03:20:46;;;;;;;9.77;3.28;;;18.40;99.90;;;;;;5136103;27;20605;-53
2022/06/25 03:23:12;;;;;;;8.18;3.22;;;18.40;99.90;;;;;;5135698;27;20640;-53
2022/06/25 03:25:37;;;;;;;6.40;2.97;;;18.40;99.90;;;;;;5135690;27;20243;-53
2022/06/25 03:28:03;;;;;;;4.13;2.70;;;18.40;99.90;;;;;;5135898;27;20175;-53
2022/06/25 03:30:29;;;;;;;7.63;2.78;;;18.40;99.90;;;;;;5135572;27;20164;-53
2022/06/25 03:32:54;;;;;;;5.10;2.80;;;18.40;99.90;;;;;;5135725;27;20164;-53
2022/06/25 03:35:20;;;;;;;7.80;3.00;;;18.40;99.90;;;;;;5135428;27;20645;-53
2022/06/25 03:37:45;;;;;;;4.45;2.90;;;18.40;99.90;;;;;;5135924;27;20172;-53
2022/06/25 03:40:11;;;;;;;10.05;2.55;;;18.40;99.90;;;;;;5135375;27;20234;-53
2022/06/25 03:42:37;;;;;;;4.80;2.65;;;18.40;99.90;;;;;;5116906;27;20171;-53
2022/06/25 03:45:03;;;;;;;13.38;2.92;;;18.50;99.90;;;;;;5135279;27;20166;-53
2022/06/25 03:47:29;;;;;;;8.40;2.75;;;18.60;99.90;;;;;;5135326;27;20179;-52
2022/06/25 03:49:55;;;;;;;6.97;2.58;;;18.50;99.90;;;;;;5135296;27;20628;-52
2022/06/25 03:52:20;;;;;;;9.57;2.70;;;18.50;99.90;;;;;;5135402;27;20199;-52
2022/06/25 03:54:46;;;;;;;6.25;3.13;;;18.50;99.90;;;;;;5135459;27;20192;-53
2022/06/25 03:57:12;;;;;;;5.70;2.53;;;18.40;99.90;;;;;;5135036;27;20632;-53
2022/06/25 03:59:37;;;;;;;7.53;3.10;;;18.40;99.90;;;;;;5134974;27;20547;-53
2022/06/25 04:02:03;;;;;;;5.22;2.60;;;18.30;99.90;;;;;;5134908;27;20636;-53
2022/06/25 04:04:29;;;;;;;4.75;2.55;;;18.30;99.90;;;;;;5135175;27;20159;-53
2022/06/25 04:06:54;;;;;;;3.72;2.75;;;18.40;99.90;;;;;;5134742;27;20167;-53
2022/06/25 04:09:20;;;;;;;6.95;2.60;;;18.40;99.90;;;;;;5134495;27;20781;-53
2022/06/25 04:11:45;;;;;;;6.60;2.80;;;18.40;99.90;;;;;;5116637;27;20175;-53
2022/06/25 04:14:11;;;;;;;3.63;2.40;;;18.40;99.90;;;;;;5134664;27;20168;-53
2022/06/25 04:16:36;;;;;;;7.13;2.35;;;18.30;99.90;;;;;;5134911;27;20172;-53
2022/06/25 04:19:02;;;;;;;4.22;2.28;;;18.40;99.90;;;;;;5134611;27;20199;-53
2022/06/25 04:21:28;;;;;;;6.63;2.63;;;18.40;99.90;;;;;;5134565;27;20221;-53
2022/06/25 04:23:54;;;;;;;4.97;2.50;;;18.60;99.90;;;;;;5134819;27;20608;-53
2022/06/25 04:26:20;;;;;;;6.45;2.80;;;18.70;99.90;;;;;;5134497;27;20163;-53
2022/06/25 04:29:04;;;;;;;5.10;2.33;;;18.80;99.90;;;;;;5134596;27;20197;-53
2022/06/25 04:31:34;;;;;;;4.50;2.67;;;18.80;99.90;;;;;;5134357;27;20172;-53
2022/06/25 04:34:00;;;;;;;5.78;2.92;;;18.90;99.90;;;;;;5133897;27;20251;-53
2022/06/25 04:36:26;;;;;;;5.72;2.88;;;19.10;99.90;;;;;;5134316;27;20182;-53
2022/06/25 04:38:53;;;;;;;8.65;2.70;;;19.30;99.90;;;;;;5134060;27;20644;-53
2022/06/25 04:41:18;;;;;;;6.30;2.08;;;19.60;99.90;;;;;;5134364;27;20186;-53
2022/06/25 04:43:44;;;;;;;6.13;2.75;;;19.70;99.90;;;;;;5134150;27;20168;-53
2022/06/25 04:46:10;;;;;;;7.45;2.50;;;19.70;99.90;;;;;;5134081;27;20160;-53
2022/06/25 04:48:35;;;;;;;4.13;2.60;;;19.90;99.90;;;;;;5133636;27;20171;-53
2022/06/25 04:51:01;;;;;;;5.25;2.58;;;20.00;99.90;;;;;;5133934;27;20172;-53
2022/06/25 04:53:26;;;;;;;2.88;2.15;;;20.00;99.90;;;;;;5133551;27;20224;-53
2022/06/25 04:55:52;;;;;;;5.15;2.50;;;20.00;99.90;;;;;;5133978;27;20169;-53
2022/06/25 04:58:18;;;;;;;7.68;2.65;;;20.10;99.90;;;;;;5133929;27;20168;-53
2022/06/25 05:00:43;;;;;;;6.00;2.53;;;20.20;99.90;;;;;;5134104;27;20524;-53
2022/06/25 05:03:09;;;;;;;7.07;2.30;;;20.30;99.90;;;;;;5133418;27;20164;-53
2022/06/25 05:05:36;;;;;;;5.10;2.45;;;20.20;99.90;;;;;;5133638;27;20179;-53
2022/06/25 05:08:02;;;;;;;9.75;3.03;;;20.10;99.90;;;;;;5133583;27;20156;-53
2022/06/25 05:10:27;;;;;;;6.95;2.83;;;20.20;99.90;;;;;;5133459;27;20216;-53
2022/06/25 05:13:12;;;;;;;3.65;2.45;;;20.30;99.90;;;;;;5133578;27;20164;-53
2022/06/25 05:15:39;;;;;;;7.18;2.42;;;20.30;99.90;;;;;;5133580;27;20172;-52
2022/06/25 05:18:06;;;;;;;10.43;2.45;;;20.50;99.90;;;;;;5133492;27;20156;-52
2022/06/25 05:20:32;;;;;;;6.88;2.67;;;20.50;99.90;;;;;;5133398;27;20570;-53
2022/06/25 05:22:57;;;;;;;7.57;2.70;;;20.60;99.90;;;;;;5133462;27;20156;-52
2022/06/25 05:25:23;;;;;;;3.72;2.30;;;20.50;99.90;;;;;;5133413;27;20179;-53
2022/06/25 05:27:49;;;;;;;4.85;2.30;;;20.60;99.90;;;;;;5133337;27;20187;-53
2022/06/25 05:30:14;;;;;;;5.57;2.35;;;20.70;99.90;;;;;;5133062;27;20247;-53
2022/06/25 05:32:40;;;;;;;2.70;1.95;;;20.80;99.90;;;;;;5133405;27;20180;-53
2022/06/25 05:35:06;;;;;;;6.55;2.60;;;20.80;99.90;;;;;;5132788;27;20156;-52
2022/06/25 05:37:32;;;;;;;5.72;2.20;;;20.90;99.90;;;;;;5132860;27;20174;-53
2022/06/25 05:39:57;;;;;;;3.58;2.38;;;20.80;99.90;;;;;;5132690;27;20269;-53
2022/06/25 05:42:23;;;;;;;6.57;2.50;;;21.00;99.90;;;;;;5132242;27;20167;-53
2022/06/25 05:44:48;;;;;;;3.55;2.35;;;21.10;99.90;;;;;;5113094;27;20176;-51
2022/06/25 05:47:14;;;;;;;8.73;2.95;;;21.00;99.90;;;;;;5131338;27;20175;-53
2022/06/25 05:49:40;;;;;;;5.45;2.40;;;21.10;99.90;;;;;;5130787;27;20616;-52
2022/06/25 05:52:06;;;;;;;9.15;2.75;;;21.10;99.90;;;;;;5130743;27;20160;-53
2022/06/25 05:54:32;;;;;;;5.38;3.25;;;21.10;99.90;;;;;;5130781;27;20171;-53
2022/06/25 05:56:57;;;;;;;6.75;2.72;;;21.10;99.90;;;;;;5130688;27;20190;-53
2022/06/25 05:59:23;;;;;;;11.40;3.20;;;21.20;99.90;;;;;;5130795;27;20643;-53
2022/06/25 06:01:48;;;;;;;6.13;2.70;;;21.30;99.90;;;;;;5132552;28;20185;-53
2022/06/25 06:04:14;;;;;;;7.97;3.13;;;21.20;99.90;;;;;;5132472;28;20167;-53
2022/06/25 06:06:40;;;;;;;6.80;2.78;;;21.30;99.90;;;;;;5132303;28;20160;-53
2022/06/25 06:09:05;;;;;;;8.18;2.90;;;21.30;99.90;;;;;;5131987;28;20664;-53
2022/06/25 06:11:31;;;;;;;8.18;2.63;;;21.20;99.90;;;;;;5132305;28;20168;-52
2022/06/25 06:13:56;;;;;;;7.60;3.28;;;21.20;99.90;;;;;;5113966;28;20175;-53
2022/06/25 06:16:22;;;;;;;7.65;3.58;;;21.40;99.90;;;;;;5132638;28;20176;-53
2022/06/25 06:18:48;;;;;;;5.65;2.90;;;21.20;99.90;;;;;;5132275;28;20271;-51
2022/06/25 06:21:13;;;;;;;7.57;3.22;;;21.30;99.90;;;;;;5132966;28;20620;-51
2022/06/25 06:23:39;;;;;;;7.00;2.72;;;21.40;99.90;;;;;;5132272;28;20616;-51
2022/06/25 06:26:04;;;;;;;6.80;3.10;;;21.50;99.90;;;;;;5132480;28;20187;-51
2022/06/25 06:28:30;;;;;;;5.40;2.33;;;21.70;99.90;;;;;;5132230;28;20229;-51
2022/06/25 06:30:55;;;;;;;5.78;2.30;;;21.70;99.90;;;;;;5132506;28;20254;-51
2022/06/25 06:33:21;;;;;;;7.05;2.88;;;21.60;99.90;;;;;;5132387;28;20176;-51
2022/06/25 06:35:47;;;;;;;3.08;2.20;;;21.80;99.90;;;;;;5132900;28;20198;-51
2022/06/25 06:38:13;;;;;;;5.70;2.40;;;19.50;99.90;;;;;;5132675;28;20608;-51
2022/06/25 06:40:38;;;;;;;9.43;3.05;;;21.80;99.90;;;;;;5132252;27;20200;-51
2022/06/25 06:43:04;;;;;;;9.80;3.83;;;21.80;99.90;;;;;;5136206;27;20195;-51
2022/06/25 06:45:30;;;;;;;8.35;2.90;;;21.60;99.90;;;;;;5136448;27;20172;-51
2022/06/25 06:47:55;;;;;;;7.68;2.75;;;21.80;99.90;;;;;;5136229;27;20228;-51
2022/06/25 06:50:21;;;;;;;11.05;3.30;;;21.90;99.90;;;;;;5136366;27;20172;-50
2022/06/25 06:52:46;;;;;;;6.57;3.30;;;22.00;99.90;;;;;;5136649;27;20171;-51
2022/06/25 06:55:12;;;;;;;5.63;2.33;;;21.90;99.90;;;;;;5136562;27;20262;-50
2022/06/25 06:57:37;;;;;;;4.07;2.08;;;21.90;99.90;;;;;;5136228;27;20620;-51
2022/06/25 07:00:06;;;;;;;8.95;2.58;;;21.80;99.90;;;;;;5136078;27;20200;-51
2022/06/25 07:02:32;;;;;;;9.63;2.67;;;22.10;99.90;;;;;;5136329;27;20160;-51
2022/06/25 07:04:57;;;;;;;5.20;1.90;;;22.20;99.90;;;;;;5135733;27;20172;-51
2022/06/25 07:07:23;;;;;;;10.68;2.60;;;22.30;99.90;;;;;;5134903;27;20235;-51
2022/06/25 07:09:49;;;;;;;8.93;1.75;;;22.40;99.90;;;;;;5134012;27;20727;-50
2022/06/25 07:12:15;;;;;;;6.45;2.05;;;22.20;99.90;;;;;;5135588;27;20246;-51
2022/06/25 07:14:41;;;;;;;2.72;1.70;;;22.30;99.90;;;;;;5135901;27;20187;-51
2022/06/25 07:17:06;;;;;;;6.55;2.05;;;22.30;99.90;;;;;;5135887;27;20616;-51
2022/06/25 07:19:32;;;;;;;3.95;1.63;;;22.30;99.90;;;;;;5135549;27;20229;-51
2022/06/25 07:21:58;;;;;;;8.48;2.17;;;22.40;99.90;;;;;;5135675;27;20156;-51
2022/06/25 07:24:24;;;;;;;4.78;1.90;;;22.50;99.90;;;;;;5134181;27;20170;-51
2022/06/25 07:26:50;;;;;;;3.45;1.45;;;22.60;99.90;;;;;;5115618;27;20168;-50
2022/06/25 07:29:16;;;;;;;8.40;1.92;;;22.50;99.90;;;;;;5134349;27;20215;-51
2022/06/25 07:31:42;;;;;;;4.32;2.00;;;22.40;99.90;;;;;;5133791;27;20160;-50
2022/06/25 07:34:07;;;;;;;7.50;2.08;;;22.60;99.90;;;;;;5133771;27;20531;-51
2022/06/25 07:36:33;;;;;;;4.57;1.73;;;22.90;99.90;;;;;;5133639;27;20164;-50
2022/06/25 07:39:00;;;;;;;4.03;1.55;;;23.00;99.90;;;;;;5133713;27;20207;-51
2022/06/25 07:41:26;;;;;;;8.02;1.42;;;23.00;99.90;;;;;;5133696;27;20167;-50
2022/06/25 07:43:52;;;;;;;6.70;2.30;;;23.00;99.90;;;;;;5134589;27;20183;-50
2022/06/25 07:46:18;;;;;;;3.17;1.45;;;23.10;99.90;;;;;;5134989;27;20620;-50
2022/06/25 07:48:44;;;;;;;4.82;2.00;;;23.30;99.90;;;;;;5133729;27;20174;-50
2022/06/25 07:53:54;;;;;;;5.40;1.60;;;23.60;99.90;;;;;;5133627;27;20208;-51
2022/06/25 07:56:19;;;;;;;3.25;1.30;;;23.60;99.90;;;;;;5133263;27;20520;-50
2022/06/25 07:58:45;;;;;;;4.20;1.60;;;23.50;99.90;;;;;;5133243;27;20202;-50
2022/06/25 08:01:11;;;;;;;2.15;1.30;;;23.40;99.90;;;;;;5133300;27;20166;-50
2022/06/25 08:03:36;;;;;;;2.53;1.48;;;23.60;99.90;;;;;;5133339;27;20199;-50
2022/06/25 08:06:02;;;;;;;8.05;1.65;;;23.60;99.90;;;;;;5132847;27;20537;-51
2022/06/25 08:08:28;;;;;;;4.70;1.67;;;23.70;99.90;;;;;;5132913;27;20192;-51
2022/06/25 08:10:54;;;;;;;5.15;1.90;;;23.90;99.90;;;;;;5133239;27;20160;-52
2022/06/25 08:13:20;;;;;;;6.32;1.60;;;24.00;99.90;;;;;;5132998;27;20196;-51
2022/06/25 08:15:46;;;;;;;3.63;1.90;;;24.20;99.90;;;;;;5133628;27;20697;-51
2022/06/25 08:18:11;;;;;;;2.92;1.40;;;24.40;99.90;;;;;;5134236;27;20160;-50
2022/06/25 08:20:37;;;;;;;2.20;1.50;;;24.30;99.90;;;;;;5116081;27;20298;-50
2022/06/25 08:23:03;;;;;;;6.05;2.05;;;24.50;99.90;;;;;;5134605;27;20251;-51
2022/06/25 08:25:28;;;;;;;5.75;1.80;;;24.70;99.90;;;;;;5134560;27;20175;-50
2022/06/25 08:27:54;;;;;;;4.80;1.73;;;24.60;99.90;;;;;;5134479;27;20167;-50
2022/06/25 08:30:21;;;;;;;2.92;1.60;;;24.50;99.90;;;;;;5134059;27;20195;-50
2022/06/25 08:32:47;;;;;;;2.90;1.55;;;24.70;99.90;;;;;;5134320;27;20523;-50
2022/06/25 08:35:14;;;;;;;4.35;1.90;;;25.20;99.90;;;;;;5134849;27;20178;-51
2022/06/25 08:37:44;;;;;;;5.63;1.88;;;24.90;99.90;;;;;;5133960;27;20612;-51
2022/06/25 08:40:10;;;;;;;4.57;2.22;;;24.60;99.90;;;;;;5132909;27;20207;-51
2022/06/25 08:42:36;;;;;;;4.85;2.17;;;24.50;99.90;;;;;;5132779;27;20528;-50
2022/06/25 08:45:03;;;;;;;7.32;2.13;;;24.70;99.90;;;;;;5132421;27;20160;-51
2022/06/25 08:47:29;;;;;;;5.88;1.90;;;24.90;99.90;;;;;;5132648;27;20167;-51
2022/06/25 08:49:55;;;;;;;5.72;1.73;;;25.10;99.90;;;;;;5132143;27;20165;-50
2022/06/25 08:52:21;;;;;;;4.70;1.70;;;25.20;99.90;;;;;;5132227;27;20155;-50
2022/06/25 08:54:48;;;;;;;7.13;1.65;;;25.20;99.90;;;;;;5132440;27;20163;-50
2022/06/25 08:57:14;;;;;;;2.70;1.77;;;25.30;99.90;;;;;;5132634;27;20631;-51
2022/06/25 08:59:40;;;;;;;10.18;3.58;;;25.40;99.90;;;;;;5132931;27;20232;-51
2022/06/25 09:02:05;;;;;;;3.45;1.50;;;25.50;99.90;;;;;;5132835;27;20652;-50
2022/06/25 09:04:34;;;;;;;6.90;2.05;;;25.80;99.90;;;;;;5131786;27;20251;-50
2022/06/25 09:07:10;;;;;;;3.85;1.60;;;25.70;99.90;;;;;;5132246;27;20178;-50
2022/06/25 09:09:36;;;;;;;5.90;1.67;;;25.40;99.90;;;;;;5112939;27;20311;-51
2022/06/25 09:12:05;;;;;;;7.00;2.00;;;25.50;99.90;;;;;;5131813;27;20254;-51
2022/06/25 09:14:32;;;;;;;6.15;1.90;;;25.80;99.90;;;;;;5131411;27;20526;-50
2022/06/25 09:17:06;;;;;;;6.85;1.98;;;26.40;99.90;;;;;;5131390;27;20160;-51
2022/06/25 09:19:38;;;;;;;4.30;1.80;;;26.60;99.90;;;;;;5131232;27;20202;-50
2022/06/25 09:22:06;;;;;;;6.13;2.00;;;26.30;99.90;;;;;;5131688;27;20156;-51
2022/06/25 09:24:48;;;;;;;6.78;3.50;;;26.50;99.90;;;;;;5131712;27;20164;-51
2022/06/25 09:27:39;;;;;;;4.60;1.70;;;26.20;99.90;;;;;;5132242;27;20254;-51
2022/06/25 09:30:16;;;;;;;6.15;1.73;;;26.50;99.90;;;;;;5131635;27;20590;-50
2022/06/25 09:32:51;;;;;;;5.00;2.08;;;26.70;99.90;;;;;;5131524;27;20187;-51
2022/06/25 09:35:37;;;;;;;4.68;2.10;;;26.30;99.90;;;;;;5131808;27;20197;-50
2022/06/25 09:38:14;;;;;;;5.35;1.50;;;26.10;99.90;;;;;;5131271;27;20165;-51
2022/06/25 09:40:48;;;;;;;5.85;1.70;;;26.40;99.90;;;;;;5132753;27;20195;-50
2022/06/25 09:43:15;;;;;;;3.53;1.48;;;26.70;99.90;;;;;;5133466;27;20241;-50
2022/06/25 09:45:50;;;;;;;4.65;1.88;;;26.60;99.90;;;;;;5132876;27;20282;-51
2022/06/25 09:48:24;;;;;;;6.03;1.73;;;26.70;99.90;;;;;;5131816;27;20628;-51
2022/06/25 09:51:08;;;;;;;9.98;2.53;;;26.50;99.90;;;;;;5131748;27;20246;-51
2022/06/25 09:53:36;;;;;;;7.07;1.85;;;26.30;99.90;;;;;;5132364;27;20167;-51
2022/06/25 09:56:03;;;;;;;6.20;1.67;;;26.50;99.90;;;;;;5132105;27;20250;-51
2022/06/25 09:58:31;;;;;;;6.85;1.98;;;26.70;99.90;;;;;;5131255;27;20191;-51
2022/06/25 10:00:57;;;;;;;3.83;1.70;;;26.70;99.90;;;;;;5131185;27;20163;-51
2022/06/25 10:03:24;;;;;;;3.28;1.50;;;26.40;99.90;;;;;;5131308;28;20163;-51
2022/06/25 10:05:53;;;;;;;4.03;1.48;;;26.90;99.90;;;;;;5131084;28;20163;-50
2022/06/25 10:08:21;;;;;;;4.28;1.75;;;27.60;99.90;;;;;;5131286;28;20200;-50
2022/06/25 10:10:50;;;;;;;2.00;1.52;;;27.50;99.90;;;;;;5131460;28;20263;-51
2022/06/25 10:13:16;;;;;;;6.35;1.77;;;27.50;99.90;;;;;;5132024;28;20179;-51
2022/06/25 10:15:44;;;;;;;4.85;1.50;;;27.30;99.90;;;;;;5133091;27;20167;-50
2022/06/25 10:18:10;;;;;;;7.22;1.73;;;27.00;99.90;;;;;;5135401;27;20171;-50
2022/06/25 10:20:36;;;;;;;8.57;1.90;;;27.30;99.90;;;;;;5135269;27;20692;-51
2022/06/25 10:23:04;;;;;;;5.95;2.17;;;27.70;99.90;;;;;;5135570;27;20688;-51
2022/06/25 10:25:30;;;;;;;3.83;1.60;;;27.80;99.90;;;;;;5135719;27;20240;-51
2022/06/25 10:28:12;;;;;;;2.63;1.60;;;28.00;99.90;;;;;;5135198;27;20171;-52
2022/06/25 10:30:44;;;;;;;4.00;1.80;;;27.90;99.90;;;;;;5134921;27;20651;-51
2022/06/25 10:33:10;;;;;;;3.33;1.45;;;27.60;99.90;;;;;;5135373;27;20168;-51
2022/06/25 10:35:38;;;;;;;3.63;1.70;;;27.50;99.90;;;;;;5134996;27;20281;-51
2022/06/25 10:38:16;;;;;;;3.90;1.63;;;27.40;99.90;;;;;;5135146;27;20171;-51
2022/06/25 10:40:49;;;;;;;3.67;1.95;;;27.10;99.90;;;;;;5134990;27;20198;-51
2022/06/25 10:43:34;;;;;;;6.78;2.35;;;27.10;99.90;;;;;;5135388;27;20187;-51
2022/06/25 10:46:23;;;;;;;2.00;1.55;;;27.10;99.90;;;;;;5134615;27;20163;-50
2022/06/25 10:49:10;;;;;;;3.92;1.88;;;27.10;99.90;;;;;;5116833;27;20171;-50
2022/06/25 10:51:38;;;;;;;4.00;1.70;;;26.90;99.90;;;;;;5118129;27;20168;-50
2022/06/25 10:54:06;;;;;;;7.07;1.70;;;27.10;99.90;;;;;;5117589;27;20164;-50
2022/06/25 10:56:47;;;;;;;5.05;1.80;;;27.10;99.90;;;;;;5135015;27;20508;-50
2022/06/25 10:59:39;;;;;;;3.22;1.85;;;27.40;99.90;;;;;;5132334;27;20213;-50
2022/06/25 11:02:10;;;;;;;3.22;1.98;;;27.50;99.90;;;;;;5140380;27;20210;-55
2022/06/25 11:04:37;;;;;;;3.92;1.60;;;27.60;99.90;;;;;;5145919;27;20255;-53
2022/06/25 11:07:13;;;;;;;4.78;1.50;;;27.70;99.90;;;;;;5145228;27;20287;-53
2022/06/25 11:09:40;;;;;;;6.13;1.60;;;27.70;99.90;;;;;;5144822;27;20289;-53
2022/06/25 11:12:06;;;;;;;5.22;1.70;;;27.50;99.90;;;;;;5133858;27;20224;-53
2022/06/25 11:14:32;;;;;;;5.28;1.40;;;27.30;99.90;;;;;;5142843;27;20194;-53
2022/06/25 11:17:09;;;;;;;3.25;1.70;;;27.00;99.90;;;;;;5143089;27;20639;-53
2022/06/25 11:19:36;;;;;;;4.88;1.70;;;27.10;99.90;;;;;;5134103;27;20338;-53
2022/06/25 11:22:02;;;;;;;7.95;1.90;;;27.10;99.90;;;;;;5135131;27;20175;-52
2022/06/25 11:24:29;;;;;;;4.95;1.95;;;27.20;99.90;;;;;;5134140;27;20190;-53
2022/06/25 11:29:47;;;;;;;2.97;1.40;;;27.50;99.90;;;;;;5154883;27;20215;-53
2022/06/25 11:32:24;;;;;;;1.45;1.30;;;27.70;99.90;;;;;;5145217;27;20167;-53
2022/06/25 11:34:54;;;;;;;4.90;1.60;;;27.50;99.90;;;;;;5146034;27;20170;-54
2022/06/25 11:37:19;;;;;;;5.50;1.50;;;27.20;99.90;;;;;;5140060;27;20658;-54
2022/06/25 11:39:46;;;;;;;3.72;1.60;;;27.30;99.90;;;;;;5133434;27;20293;-54
2022/06/25 11:42:13;;;;;;;5.50;1.98;;;27.20;99.90;;;;;;5151068;27;20171;-54
2022/06/25 11:44:47;;;;;;;3.40;1.50;;;27.00;99.90;;;;;;5134764;27;20171;-53
2022/06/25 11:47:24;;;;;;;3.97;1.60;;;27.20;99.90;;;;;;5134223;27;20163;-53
2022/06/25 11:49:51;;;;;;;4.10;1.63;;;27.20;99.90;;;;;;5134116;27;20179;-53
2022/06/25 11:52:18;;;;;;;3.85;1.40;;;27.10;99.90;;;;;;5117108;27;20212;-53
2022/06/25 11:54:46;;;;;;;2.95;1.60;;;27.20;99.90;;;;;;5135319;27;20243;-53
2022/06/25 11:57:21;;;;;;;6.28;1.77;;;27.20;99.90;;;;;;5134706;27;20167;-53
2022/06/25 11:59:49;;;;;;;3.85;1.70;;;27.30;99.90;;;;;;5135186;27;20203;-53
2022/06/25 12:02:15;;;;;;;5.47;1.83;;;27.60;99.90;;;;;;5134272;27;20160;-54
2022/06/25 12:04:56;;;;;;;2.90;1.75;;;27.40;99.90;;;;;;5134856;27;20581;-54
2022/06/25 12:07:36;;;;;;;4.60;1.98;;;27.10;99.90;;;;;;5134377;27;20166;-53
2022/06/25 12:10:10;;;;;;;2.92;1.50;;;26.70;99.90;;;;;;5134331;27;20297;-54
2022/06/25 12:12:40;;;;;;;3.15;1.60;;;26.80;99.90;;;;;;5133052;27;20160;-53
2022/06/25 12:15:08;;;;;;;4.57;1.55;;;26.80;99.90;;;;;;5132609;27;20741;-53
2022/06/25 12:17:34;;;;;;;5.53;1.50;;;26.90;99.90;;;;;;5132942;27;20171;-54
2022/06/25 12:20:10;;;;;;;4.25;1.70;;;26.70;99.90;;;;;;5132810;27;20690;-54
2022/06/25 12:22:40;;;;;;;6.13;1.75;;;26.90;99.90;;;;;;5133197;27;20228;-54
2022/06/25 12:25:06;;;;;;;6.75;1.77;;;26.80;99.90;;;;;;5133100;27;20168;-54
2022/06/25 12:27:44;;;;;;;5.15;1.92;;;26.90;99.90;;;;;;5132745;27;20167;-54
2022/06/25 12:30:10;;;;;;;4.68;2.13;;;26.90;99.90;;;;;;5132876;27;20198;-54
2022/06/25 12:32:41;;;;;;;4.30;2.03;;;26.70;99.90;;;;;;5132828;27;20194;-53
2022/06/25 12:35:20;;;;;;;3.95;1.70;;;27.10;99.90;;;;;;5132980;27;20174;-53
2022/06/25 12:38:21;;;;;;;4.38;1.77;;;27.20;99.90;;;;;;5132860;27;20191;-54
2022/06/25 12:40:49;;;;;;;11.80;2.20;;;26.90;99.90;;;;;;5049751;28;20202;-54
2022/06/25 12:43:15;;;;;;;5.90;2.20;;;26.80;99.90;;;;;;5117986;27;20180;-53
2022/06/25 12:45:47;;;;;;;5.20;1.73;;;26.90;99.90;;;;;;5133232;27;20167;-53
2022/06/25 12:48:24;;;;;;;3.70;1.67;;;26.90;99.90;;;;;;5133333;27;20171;-53
2022/06/25 12:50:50;;;;;;;1.98;1.58;;;26.90;99.90;;;;;;5131337;27;20230;-54
2022/06/25 12:53:16;;;;;;;3.35;2.03;;;27.10;99.90;;;;;;5132518;27;20559;-53
2022/06/25 12:55:48;;;;;;;2.22;1.92;;;26.90;99.90;;;;;;5131724;27;20255;-54
2022/06/25 12:58:14;;;;;;;2.90;1.63;;;26.90;99.90;;;;;;5133042;27;20170;-53
2022/06/25 13:00:43;;;;;;;3.33;1.63;;;26.90;99.90;;;;;;5133477;27;20249;-53
2022/06/25 13:03:09;;;;;;;3.35;1.52;;;26.70;99.90;;;;;;5133919;27;20198;-54
2022/06/25 13:05:35;;;;;;;3.03;1.50;;;24.30;99.90;;;;;;5133491;27;20182;-54
2022/06/25 13:08:02;;;;;;;4.20;1.70;;;26.50;99.90;;;;;;5132689;27;20529;-53